sensor_id;sensor_type;location;lat;lon;timestamp;temperature;humidity
48998;DHT22;34807;51.456;7.244;2023-05-07T00:00:32;14.90;94.40
48998;DHT22;34807;51.456;7.244;2023-05-07T00:02:59;14.90;94.50
48998;DHT22;34807;51.456;7.244;2023-05-07T00:05:24;14.90;94.50
48998;DHT22;34807;51.456;7.244;2023-05-07T00:07:50;14.90;94.50
48998;DHT22;34807;51.456;7.244;2023-05-07T00:10:18;14.90;94.40
48998;DHT22;34807;51.456;7.244;2023-05-07T00:12:43;14.80;94.50
48998;DHT22;34807;51.456;7.244;2023-05-07T00:15:09;14.80;94.50
48998;DHT22;34807;51.456;7.244;2023-05-07T00:17:35;14.80;94.50
48998;DHT22;34807;51.456;7.244;2023-05-07T00:20:01;14.80;94.50
48998;DHT22;34807;51.456;7.244;2023-05-07T00:22:26;14.80;94.60
48998;DHT22;34807;51.456;7.244;2023-05-07T00:24:52;14.80;94.60
48998;DHT22;34807;51.456;7.244;2023-05-07T00:27:17;14.80;94.60
48998;DHT22;34807;51.456;7.244;2023-05-07T00:29:43;14.70;94.70
48998;DHT22;34807;51.456;7.244;2023-05-07T00:32:08;14.70;94.60
48998;DHT22;34807;51.456;7.244;2023-05-07T00:34:34;14.80;94.70
48998;DHT22;34807;51.456;7.244;2023-05-07T00:37:00;14.70;94.70
48998;DHT22;34807;51.456;7.244;2023-05-07T00:39:26;14.70;94.70
48998;DHT22;34807;51.456;7.244;2023-05-07T00:41:51;14.70;94.70
48998;DHT22;34807;51.456;7.244;2023-05-07T00:44:17;14.70;95.10
48998;DHT22;34807;51.456;7.244;2023-05-07T00:46:43;14.70;94.80
48998;DHT22;34807;51.456;7.244;2023-05-07T00:49:10;14.70;94.70
48998;DHT22;34807;51.456;7.244;2023-05-07T00:51:36;14.70;94.90
48998;DHT22;34807;51.456;7.244;2023-05-07T00:54:02;14.60;94.80
48998;DHT22;34807;51.456;7.244;2023-05-07T00:56:28;14.60;94.80
48998;DHT22;34807;51.456;7.244;2023-05-07T00:58:53;14.60;94.90
48998;DHT22;34807;51.456;7.244;2023-05-07T01:01:19;14.60;94.90
48998;DHT22;34807;51.456;7.244;2023-05-07T01:03:45;14.60;94.90
48998;DHT22;34807;51.456;7.244;2023-05-07T01:06:10;14.60;94.90
48998;DHT22;34807;51.456;7.244;2023-05-07T01:08:38;14.60;94.90
48998;DHT22;34807;51.456;7.244;2023-05-07T01:11:05;14.60;95.00
48998;DHT22;34807;51.456;7.244;2023-05-07T01:13:31;14.60;94.90
48998;DHT22;34807;51.456;7.244;2023-05-07T01:15:57;14.60;95.00
48998;DHT22;34807;51.456;7.244;2023-05-07T01:18:22;14.50;95.00
48998;DHT22;34807;51.456;7.244;2023-05-07T01:20:48;14.50;95.00
48998;DHT22;34807;51.456;7.244;2023-05-07T01:23:13;14.50;95.00
48998;DHT22;34807;51.456;7.244;2023-05-07T01:25:40;14.50;95.30
48998;DHT22;34807;51.456;7.244;2023-05-07T01:28:05;14.50;95.10
48998;DHT22;34807;51.456;7.244;2023-05-07T01:30:31;14.50;95.10
48998;DHT22;34807;51.456;7.244;2023-05-07T01:32:59;14.50;95.10
48998;DHT22;34807;51.456;7.244;2023-05-07T01:35:29;14.50;95.20
48998;DHT22;34807;51.456;7.244;2023-05-07T01:37:55;14.50;95.20
48998;DHT22;34807;51.456;7.244;2023-05-07T01:40:21;14.50;95.20
48998;DHT22;34807;51.456;7.244;2023-05-07T01:42:47;14.40;95.10
48998;DHT22;34807;51.456;7.244;2023-05-07T01:45:13;14.50;95.10
48998;DHT22;34807;51.456;7.244;2023-05-07T01:47:39;14.40;95.10
48998;DHT22;34807;51.456;7.244;2023-05-07T01:50:07;14.40;95.10
48998;DHT22;34807;51.456;7.244;2023-05-07T01:52:34;14.40;95.20
48998;DHT22;34807;51.456;7.244;2023-05-07T01:55:00;14.40;95.10
48998;DHT22;34807;51.456;7.244;2023-05-07T01:57:25;14.40;95.10
48998;DHT22;34807;51.456;7.244;2023-05-07T01:59:51;14.40;95.20
48998;DHT22;34807;51.456;7.244;2023-05-07T02:02:16;14.40;95.20
48998;DHT22;34807;51.456;7.244;2023-05-07T02:04:42;14.40;95.20
48998;DHT22;34807;51.456;7.244;2023-05-07T02:07:07;14.40;95.10
48998;DHT22;34807;51.456;7.244;2023-05-07T02:09:33;14.30;95.20
48998;DHT22;34807;51.456;7.244;2023-05-07T02:11:58;14.30;95.10
48998;DHT22;34807;51.456;7.244;2023-05-07T02:14:24;14.30;95.20
48998;DHT22;34807;51.456;7.244;2023-05-07T02:16:51;14.30;95.10
48998;DHT22;34807;51.456;7.244;2023-05-07T02:19:16;14.30;95.20
48998;DHT22;34807;51.456;7.244;2023-05-07T02:21:42;14.30;95.10
48998;DHT22;34807;51.456;7.244;2023-05-07T02:24:07;14.30;95.10
48998;DHT22;34807;51.456;7.244;2023-05-07T02:26:33;14.30;95.10
48998;DHT22;34807;51.456;7.244;2023-05-07T02:28:59;14.20;95.10
48998;DHT22;34807;51.456;7.244;2023-05-07T02:31:25;14.20;95.00
48998;DHT22;34807;51.456;7.244;2023-05-07T02:33:50;14.30;95.00
48998;DHT22;34807;51.456;7.244;2023-05-07T02:36:16;14.20;95.00
48998;DHT22;34807;51.456;7.244;2023-05-07T02:38:41;14.20;95.10
48998;DHT22;34807;51.456;7.244;2023-05-07T02:41:07;14.20;95.10
48998;DHT22;34807;51.456;7.244;2023-05-07T02:43:32;14.20;95.10
48998;DHT22;34807;51.456;7.244;2023-05-07T02:46:01;14.20;95.10
48998;DHT22;34807;51.456;7.244;2023-05-07T02:48:28;14.20;95.10
48998;DHT22;34807;51.456;7.244;2023-05-07T02:50:53;14.20;95.10
48998;DHT22;34807;51.456;7.244;2023-05-07T02:53:18;14.20;95.10
48998;DHT22;34807;51.456;7.244;2023-05-07T02:55:44;14.20;95.20
48998;DHT22;34807;51.456;7.244;2023-05-07T02:58:10;14.20;95.20
48998;DHT22;34807;51.456;7.244;2023-05-07T03:00:35;14.10;95.10
48998;DHT22;34807;51.456;7.244;2023-05-07T03:03:01;14.10;95.20
48998;DHT22;34807;51.456;7.244;2023-05-07T03:05:26;14.10;95.50
48998;DHT22;34807;51.456;7.244;2023-05-07T03:07:52;14.10;95.20
48998;DHT22;34807;51.456;7.244;2023-05-07T03:10:17;14.10;95.30
48998;DHT22;34807;51.456;7.244;2023-05-07T03:12:43;14.10;95.40
48998;DHT22;34807;51.456;7.244;2023-05-07T03:15:09;14.10;95.30
48998;DHT22;34807;51.456;7.244;2023-05-07T03:17:35;14.00;95.30
48998;DHT22;34807;51.456;7.244;2023-05-07T03:20:01;14.10;95.30
48998;DHT22;34807;51.456;7.244;2023-05-07T03:22:26;14.00;95.30
48998;DHT22;34807;51.456;7.244;2023-05-07T03:24:52;14.00;95.30
48998;DHT22;34807;51.456;7.244;2023-05-07T03:27:17;14.00;95.20
48998;DHT22;34807;51.456;7.244;2023-05-07T03:29:43;14.00;95.30
48998;DHT22;34807;51.456;7.244;2023-05-07T03:32:08;14.00;95.20
48998;DHT22;34807;51.456;7.244;2023-05-07T03:34:34;14.00;95.30
48998;DHT22;34807;51.456;7.244;2023-05-07T03:37:00;14.00;95.20
48998;DHT22;34807;51.456;7.244;2023-05-07T03:39:25;14.00;95.30
48998;DHT22;34807;51.456;7.244;2023-05-07T03:41:51;14.00;95.40
48998;DHT22;34807;51.456;7.244;2023-05-07T03:44:16;13.90;95.20
48998;DHT22;34807;51.456;7.244;2023-05-07T03:46:42;13.90;95.30
48998;DHT22;34807;51.456;7.244;2023-05-07T03:49:07;13.90;95.30
48998;DHT22;34807;51.456;7.244;2023-05-07T03:51:33;13.90;95.30
48998;DHT22;34807;51.456;7.244;2023-05-07T03:53:58;13.90;95.30
48998;DHT22;34807;51.456;7.244;2023-05-07T03:56:24;13.90;95.30
48998;DHT22;34807;51.456;7.244;2023-05-07T03:58:52;13.90;95.60
48998;DHT22;34807;51.456;7.244;2023-05-07T04:01:17;13.90;95.40
48998;DHT22;34807;51.456;7.244;2023-05-07T04:03:43;13.90;95.40
48998;DHT22;34807;51.456;7.244;2023-05-07T04:06:08;13.90;95.40
48998;DHT22;34807;51.456;7.244;2023-05-07T04:08:34;13.80;95.30
48998;DHT22;34807;51.456;7.244;2023-05-07T04:10:59;13.80;95.30
48998;DHT22;34807;51.456;7.244;2023-05-07T04:13:25;13.90;95.30
48998;DHT22;34807;51.456;7.244;2023-05-07T04:15:51;13.80;95.30
48998;DHT22;34807;51.456;7.244;2023-05-07T04:18:16;13.80;95.30
48998;DHT22;34807;51.456;7.244;2023-05-07T04:20:42;13.80;95.30
48998;DHT22;34807;51.456;7.244;2023-05-07T04:23:07;13.80;95.30
48998;DHT22;34807;51.456;7.244;2023-05-07T04:25:33;13.80;95.20
48998;DHT22;34807;51.456;7.244;2023-05-07T04:27:59;13.80;95.20
48998;DHT22;34807;51.456;7.244;2023-05-07T04:30:24;13.80;95.20
48998;DHT22;34807;51.456;7.244;2023-05-07T04:32:50;13.80;95.20
48998;DHT22;34807;51.456;7.244;2023-05-07T04:35:15;13.80;95.20
48998;DHT22;34807;51.456;7.244;2023-05-07T04:37:41;13.80;95.10
48998;DHT22;34807;51.456;7.244;2023-05-07T04:40:07;13.80;95.20
48998;DHT22;34807;51.456;7.244;2023-05-07T04:42:33;13.80;95.20
48998;DHT22;34807;51.456;7.244;2023-05-07T04:44:58;13.80;95.20
48998;DHT22;34807;51.456;7.244;2023-05-07T04:47:24;13.80;95.10
48998;DHT22;34807;51.456;7.244;2023-05-07T04:49:49;13.80;95.10
48998;DHT22;34807;51.456;7.244;2023-05-07T04:52:15;13.80;95.10
48998;DHT22;34807;51.456;7.244;2023-05-07T04:54:40;13.80;95.00
48998;DHT22;34807;51.456;7.244;2023-05-07T04:57:06;13.80;94.90
48998;DHT22;34807;51.456;7.244;2023-05-07T04:59:32;13.80;94.80
48998;DHT22;34807;51.456;7.244;2023-05-07T05:01:57;13.80;94.90
48998;DHT22;34807;51.456;7.244;2023-05-07T05:04:23;13.80;94.90
48998;DHT22;34807;51.456;7.244;2023-05-07T05:06:48;13.80;94.60
48998;DHT22;34807;51.456;7.244;2023-05-07T05:09:14;13.80;94.80
48998;DHT22;34807;51.456;7.244;2023-05-07T05:11:41;13.80;94.70
48998;DHT22;34807;51.456;7.244;2023-05-07T05:14:06;13.90;94.70
48998;DHT22;34807;51.456;7.244;2023-05-07T05:16:32;13.90;94.80
48998;DHT22;34807;51.456;7.244;2023-05-07T05:18:58;13.90;94.80
48998;DHT22;34807;51.456;7.244;2023-05-07T05:21:23;13.90;94.80
48998;DHT22;34807;51.456;7.244;2023-05-07T05:23:50;13.90;94.80
48998;DHT22;34807;51.456;7.244;2023-05-07T05:26:17;13.90;94.80
48998;DHT22;34807;51.456;7.244;2023-05-07T05:28:42;13.90;94.70
48998;DHT22;34807;51.456;7.244;2023-05-07T05:31:08;13.90;94.70
48998;DHT22;34807;51.456;7.244;2023-05-07T05:33:33;13.90;94.90
48998;DHT22;34807;51.456;7.244;2023-05-07T05:35:59;13.90;94.90
48998;DHT22;34807;51.456;7.244;2023-05-07T05:38:24;13.90;94.90
48998;DHT22;34807;51.456;7.244;2023-05-07T05:40:51;14.00;94.70
48998;DHT22;34807;51.456;7.244;2023-05-07T05:43:16;14.00;94.70
48998;DHT22;34807;51.456;7.244;2023-05-07T05:45:42;14.00;94.90
48998;DHT22;34807;51.456;7.244;2023-05-07T05:48:07;14.00;94.70
48998;DHT22;34807;51.456;7.244;2023-05-07T05:50:33;14.00;94.50
48998;DHT22;34807;51.456;7.244;2023-05-07T05:53:01;14.00;94.50
48998;DHT22;34807;51.456;7.244;2023-05-07T05:55:26;14.00;94.40
48998;DHT22;34807;51.456;7.244;2023-05-07T05:57:52;14.00;94.50
48998;DHT22;34807;51.456;7.244;2023-05-07T06:00:17;14.10;94.50
48998;DHT22;34807;51.456;7.244;2023-05-07T06:02:43;14.10;94.50
48998;DHT22;34807;51.456;7.244;2023-05-07T06:05:08;14.10;94.40
48998;DHT22;34807;51.456;7.244;2023-05-07T06:07:34;14.10;94.30
48998;DHT22;34807;51.456;7.244;2023-05-07T06:10:00;14.20;94.30
48998;DHT22;34807;51.456;7.244;2023-05-07T06:12:26;14.20;94.60
48998;DHT22;34807;51.456;7.244;2023-05-07T06:14:51;14.20;94.40
48998;DHT22;34807;51.456;7.244;2023-05-07T06:17:17;14.20;94.30
48998;DHT22;34807;51.456;7.244;2023-05-07T06:19:43;14.30;94.20
48998;DHT22;34807;51.456;7.244;2023-05-07T06:22:08;14.30;94.20
48998;DHT22;34807;51.456;7.244;2023-05-07T06:24:34;14.40;94.10
48998;DHT22;34807;51.456;7.244;2023-05-07T06:26:59;14.40;94.10
48998;DHT22;34807;51.456;7.244;2023-05-07T06:29:25;14.40;94.10
48998;DHT22;34807;51.456;7.244;2023-05-07T06:31:55;14.40;94.10
48998;DHT22;34807;51.456;7.244;2023-05-07T06:34:21;14.50;94.00
48998;DHT22;34807;51.456;7.244;2023-05-07T06:36:46;14.50;93.90
48998;DHT22;34807;51.456;7.244;2023-05-07T06:39:12;14.60;93.90
48998;DHT22;34807;51.456;7.244;2023-05-07T06:41:37;14.60;93.80
48998;DHT22;34807;51.456;7.244;2023-05-07T06:44:04;14.60;93.70
48998;DHT22;34807;51.456;7.244;2023-05-07T06:46:30;14.70;93.70
48998;DHT22;34807;51.456;7.244;2023-05-07T06:48:55;14.70;93.70
48998;DHT22;34807;51.456;7.244;2023-05-07T06:51:22;14.70;93.70
48998;DHT22;34807;51.456;7.244;2023-05-07T06:53:47;14.70;93.70
48998;DHT22;34807;51.456;7.244;2023-05-07T06:56:13;14.80;93.60
48998;DHT22;34807;51.456;7.244;2023-05-07T06:58:38;14.80;93.60
48998;DHT22;34807;51.456;7.244;2023-05-07T07:01:04;14.80;93.60
48998;DHT22;34807;51.456;7.244;2023-05-07T07:03:29;14.90;93.80
48998;DHT22;34807;51.456;7.244;2023-05-07T07:05:55;14.90;93.50
48998;DHT22;34807;51.456;7.244;2023-05-07T07:08:21;14.90;93.50
48998;DHT22;34807;51.456;7.244;2023-05-07T07:10:47;15.00;93.50
48998;DHT22;34807;51.456;7.244;2023-05-07T07:13:12;15.00;93.40
48998;DHT22;34807;51.456;7.244;2023-05-07T07:15:38;15.10;93.40
48998;DHT22;34807;51.456;7.244;2023-05-07T07:18:04;15.10;93.40
48998;DHT22;34807;51.456;7.244;2023-05-07T07:20:29;15.10;93.30
48998;DHT22;34807;51.456;7.244;2023-05-07T07:22:55;15.20;93.30
48998;DHT22;34807;51.456;7.244;2023-05-07T07:25:20;15.20;93.20
48998;DHT22;34807;51.456;7.244;2023-05-07T07:27:46;15.30;93.20
48998;DHT22;34807;51.456;7.244;2023-05-07T07:30:11;15.30;93.20
48998;DHT22;34807;51.456;7.244;2023-05-07T07:32:37;15.30;93.20
48998;DHT22;34807;51.456;7.244;2023-05-07T07:35:02;15.40;93.20
48998;DHT22;34807;51.456;7.244;2023-05-07T07:37:28;15.40;93.10
48998;DHT22;34807;51.456;7.244;2023-05-07T07:39:54;15.40;93.10
48998;DHT22;34807;51.456;7.244;2023-05-07T07:42:20;15.40;93.10
48998;DHT22;34807;51.456;7.244;2023-05-07T07:44:45;15.50;93.10
48998;DHT22;34807;51.456;7.244;2023-05-07T07:47:11;15.50;93.00
48998;DHT22;34807;51.456;7.244;2023-05-07T07:49:36;15.60;93.10
48998;DHT22;34807;51.456;7.244;2023-05-07T07:52:02;15.60;93.00
48998;DHT22;34807;51.456;7.244;2023-05-07T07:54:27;15.60;93.00
48998;DHT22;34807;51.456;7.244;2023-05-07T07:56:54;15.70;92.90
48998;DHT22;34807;51.456;7.244;2023-05-07T07:59:20;15.80;92.90
48998;DHT22;34807;51.456;7.244;2023-05-07T08:01:45;15.80;92.80
48998;DHT22;34807;51.456;7.244;2023-05-07T08:04:13;15.90;92.90
48998;DHT22;34807;51.456;7.244;2023-05-07T08:06:38;15.90;92.80
48998;DHT22;34807;51.456;7.244;2023-05-07T08:09:04;15.90;92.70
48998;DHT22;34807;51.456;7.244;2023-05-07T08:11:30;16.00;92.70
48998;DHT22;34807;51.456;7.244;2023-05-07T08:13:55;16.00;92.60
48998;DHT22;34807;51.456;7.244;2023-05-07T08:16:21;16.10;92.60
48998;DHT22;34807;51.456;7.244;2023-05-07T08:18:46;16.10;92.60
48998;DHT22;34807;51.456;7.244;2023-05-07T08:21:12;16.10;92.50
48998;DHT22;34807;51.456;7.244;2023-05-07T08:23:37;16.10;92.50
48998;DHT22;34807;51.456;7.244;2023-05-07T08:26:03;16.20;92.60
48998;DHT22;34807;51.456;7.244;2023-05-07T08:28:28;16.30;92.50
48998;DHT22;34807;51.456;7.244;2023-05-07T08:30:54;16.40;92.50
48998;DHT22;34807;51.456;7.244;2023-05-07T08:33:21;16.40;92.40
48998;DHT22;34807;51.456;7.244;2023-05-07T08:35:47;16.40;92.40
48998;DHT22;34807;51.456;7.244;2023-05-07T08:38:12;16.50;92.40
48998;DHT22;34807;51.456;7.244;2023-05-07T08:40:38;16.50;92.40
48998;DHT22;34807;51.456;7.244;2023-05-07T08:43:07;16.60;92.20
48998;DHT22;34807;51.456;7.244;2023-05-07T08:45:33;16.70;92.10
48998;DHT22;34807;51.456;7.244;2023-05-07T08:48:00;16.70;92.10
48998;DHT22;34807;51.456;7.244;2023-05-07T08:50:26;16.80;92.20
48998;DHT22;34807;51.456;7.244;2023-05-07T08:52:52;16.90;92.00
48998;DHT22;34807;51.456;7.244;2023-05-07T08:55:18;16.90;92.00
48998;DHT22;34807;51.456;7.244;2023-05-07T08:57:43;17.00;91.90
48998;DHT22;34807;51.456;7.244;2023-05-07T09:00:09;17.10;91.90
48998;DHT22;34807;51.456;7.244;2023-05-07T09:02:35;17.10;91.80
48998;DHT22;34807;51.456;7.244;2023-05-07T09:05:00;17.20;91.70
48998;DHT22;34807;51.456;7.244;2023-05-07T09:07:26;17.20;91.70
48998;DHT22;34807;51.456;7.244;2023-05-07T09:09:52;17.30;91.80
48998;DHT22;34807;51.456;7.244;2023-05-07T09:12:18;17.30;91.80
48998;DHT22;34807;51.456;7.244;2023-05-07T09:14:44;17.30;91.80
48998;DHT22;34807;51.456;7.244;2023-05-07T09:17:10;17.40;91.80
48998;DHT22;34807;51.456;7.244;2023-05-07T09:19:35;17.40;91.70
48998;DHT22;34807;51.456;7.244;2023-05-07T09:22:01;17.50;91.70
48998;DHT22;34807;51.456;7.244;2023-05-07T09:24:28;17.50;91.70
48998;DHT22;34807;51.456;7.244;2023-05-07T09:26:57;17.50;91.60
48998;DHT22;34807;51.456;7.244;2023-05-07T09:29:22;17.60;91.50
48998;DHT22;34807;51.456;7.244;2023-05-07T09:31:48;17.70;91.60
48998;DHT22;34807;51.456;7.244;2023-05-07T09:34:14;17.80;91.50
48998;DHT22;34807;51.456;7.244;2023-05-07T09:36:39;17.80;91.60
48998;DHT22;34807;51.456;7.244;2023-05-07T09:39:05;17.90;91.50
48998;DHT22;34807;51.456;7.244;2023-05-07T09:41:30;18.00;91.40
48998;DHT22;34807;51.456;7.244;2023-05-07T09:43:57;18.00;91.30
48998;DHT22;34807;51.456;7.244;2023-05-07T09:46:25;18.10;91.30
48998;DHT22;34807;51.456;7.244;2023-05-07T09:48:53;18.10;91.30
48998;DHT22;34807;51.456;7.244;2023-05-07T09:53:47;18.20;91.50
48998;DHT22;34807;51.456;7.244;2023-05-07T09:56:13;18.30;91.30
48998;DHT22;34807;51.456;7.244;2023-05-07T09:58:40;18.40;91.30
48998;DHT22;34807;51.456;7.244;2023-05-07T10:01:06;18.40;91.10
48998;DHT22;34807;51.456;7.244;2023-05-07T10:03:32;18.50;91.10
48998;DHT22;34807;51.456;7.244;2023-05-07T10:05:58;18.50;90.90
48998;DHT22;34807;51.456;7.244;2023-05-07T10:08:24;18.60;90.90
48998;DHT22;34807;51.456;7.244;2023-05-07T10:10:50;18.70;90.90
48998;DHT22;34807;51.456;7.244;2023-05-07T10:13:16;18.70;90.90
48998;DHT22;34807;51.456;7.244;2023-05-07T10:15:41;18.80;90.70
48998;DHT22;34807;51.456;7.244;2023-05-07T10:18:07;18.90;90.60
48998;DHT22;34807;51.456;7.244;2023-05-07T10:20:33;19.00;90.50
48998;DHT22;34807;51.456;7.244;2023-05-07T10:23:00;19.10;90.40
48998;DHT22;34807;51.456;7.244;2023-05-07T10:25:30;19.20;90.30
48998;DHT22;34807;51.456;7.244;2023-05-07T10:27:57;19.30;90.40
48998;DHT22;34807;51.456;7.244;2023-05-07T10:32:56;19.40;90.50
48998;DHT22;34807;51.456;7.244;2023-05-07T10:35:26;19.40;90.60
48998;DHT22;34807;51.456;7.244;2023-05-07T10:37:52;19.50;90.50
48998;DHT22;34807;51.456;7.244;2023-05-07T10:40:17;19.50;90.50
48998;DHT22;34807;51.456;7.244;2023-05-07T10:42:55;19.60;90.50
48998;DHT22;34807;51.456;7.244;2023-05-07T10:45:21;19.60;90.50
48998;DHT22;34807;51.456;7.244;2023-05-07T10:50:31;19.70;90.60
48998;DHT22;34807;51.456;7.244;2023-05-07T10:55:40;19.80;90.40
48998;DHT22;34807;51.456;7.244;2023-05-07T11:00:49;20.00;90.20
48998;DHT22;34807;51.456;7.244;2023-05-07T11:03:15;20.00;90.20
48998;DHT22;34807;51.456;7.244;2023-05-07T11:05:41;20.00;90.30
48998;DHT22;34807;51.456;7.244;2023-05-07T11:08:07;20.10;90.40
48998;DHT22;34807;51.456;7.244;2023-05-07T11:13:17;20.10;90.40
48998;DHT22;34807;51.456;7.244;2023-05-07T11:15:46;20.10;90.40
48998;DHT22;34807;51.456;7.244;2023-05-07T11:18:12;20.10;90.50
48998;DHT22;34807;51.456;7.244;2023-05-07T11:28:28;20.20;90.60
48998;DHT22;34807;51.456;7.244;2023-05-07T11:30:54;20.20;90.50
48998;DHT22;34807;51.456;7.244;2023-05-07T11:33:21;20.20;90.40
48998;DHT22;34807;51.456;7.244;2023-05-07T11:35:47;20.30;90.40
48998;DHT22;34807;51.456;7.244;2023-05-07T11:38:13;20.30;90.50
48998;DHT22;34807;51.456;7.244;2023-05-07T11:43:16;20.30;90.50
48998;DHT22;34807;51.456;7.244;2023-05-07T11:45:42;20.30;90.50
48998;DHT22;34807;51.456;7.244;2023-05-07T11:48:08;20.30;90.60
48998;DHT22;34807;51.456;7.244;2023-05-07T11:50:33;20.30;90.70
48998;DHT22;34807;51.456;7.244;2023-05-07T11:52:59;20.40;90.60
48998;DHT22;34807;51.456;7.244;2023-05-07T11:55:24;20.40;90.50
48998;DHT22;34807;51.456;7.244;2023-05-07T11:57:51;20.40;90.50
48998;DHT22;34807;51.456;7.244;2023-05-07T12:00:17;20.40;90.40
48998;DHT22;34807;51.456;7.244;2023-05-07T12:02:43;20.40;90.50
48998;DHT22;34807;51.456;7.244;2023-05-07T12:05:08;20.50;90.40
48998;DHT22;34807;51.456;7.244;2023-05-07T12:07:34;20.50;90.30
48998;DHT22;34807;51.456;7.244;2023-05-07T12:10:03;20.60;90.20
48998;DHT22;34807;51.456;7.244;2023-05-07T12:12:29;20.70;90.40
48998;DHT22;34807;51.456;7.244;2023-05-07T12:14:54;20.80;90.20
48998;DHT22;34807;51.456;7.244;2023-05-07T12:17:20;20.70;90.20
48998;DHT22;34807;51.456;7.244;2023-05-07T12:19:46;20.80;90.30
48998;DHT22;34807;51.456;7.244;2023-05-07T12:22:12;20.80;90.20
48998;DHT22;34807;51.456;7.244;2023-05-07T12:24:56;20.80;90.30
48998;DHT22;34807;51.456;7.244;2023-05-07T12:27:22;20.80;90.20
48998;DHT22;34807;51.456;7.244;2023-05-07T12:29:48;20.80;90.40
48998;DHT22;34807;51.456;7.244;2023-05-07T12:32:17;20.80;90.40
48998;DHT22;34807;51.456;7.244;2023-05-07T12:34:43;20.80;90.30
48998;DHT22;34807;51.456;7.244;2023-05-07T12:37:08;20.80;90.30
48998;DHT22;34807;51.456;7.244;2023-05-07T12:39:35;20.80;90.40
48998;DHT22;34807;51.456;7.244;2023-05-07T12:42:01;20.80;90.40
48998;DHT22;34807;51.456;7.244;2023-05-07T12:44:30;20.80;90.40
48998;DHT22;34807;51.456;7.244;2023-05-07T12:46:56;20.70;90.50
48998;DHT22;34807;51.456;7.244;2023-05-07T12:49:21;20.70;90.60
48998;DHT22;34807;51.456;7.244;2023-05-07T12:51:48;20.70;90.70
48998;DHT22;34807;51.456;7.244;2023-05-07T12:54:14;20.60;90.70
48998;DHT22;34807;51.456;7.244;2023-05-07T12:56:59;20.60;90.80
48998;DHT22;34807;51.456;7.244;2023-05-07T12:59:38;20.60;90.90
48998;DHT22;34807;51.456;7.244;2023-05-07T13:02:05;20.50;91.00
48998;DHT22;34807;51.456;7.244;2023-05-07T13:04:30;20.50;91.10
48998;DHT22;34807;51.456;7.244;2023-05-07T13:06:56;20.50;91.10
48998;DHT22;34807;51.456;7.244;2023-05-07T13:09:21;20.40;91.00
48998;DHT22;34807;51.456;7.244;2023-05-07T13:11:47;20.40;91.10
48998;DHT22;34807;51.456;7.244;2023-05-07T13:14:12;20.40;91.20
48998;DHT22;34807;51.456;7.244;2023-05-07T13:16:38;20.40;91.10
48998;DHT22;34807;51.456;7.244;2023-05-07T13:19:03;20.40;91.20
48998;DHT22;34807;51.456;7.244;2023-05-07T13:21:29;20.40;91.20
48998;DHT22;34807;51.456;7.244;2023-05-07T13:23:57;20.30;91.20
48998;DHT22;34807;51.456;7.244;2023-05-07T13:26:23;20.30;91.30
48998;DHT22;34807;51.456;7.244;2023-05-07T13:28:49;20.20;91.30
48998;DHT22;34807;51.456;7.244;2023-05-07T13:31:14;20.20;91.30
48998;DHT22;34807;51.456;7.244;2023-05-07T13:33:39;20.20;91.40
48998;DHT22;34807;51.456;7.244;2023-05-07T13:36:05;20.10;91.50
48998;DHT22;34807;51.456;7.244;2023-05-07T13:38:31;20.10;91.50
48998;DHT22;34807;51.456;7.244;2023-05-07T13:40:56;20.10;91.60
48998;DHT22;34807;51.456;7.244;2023-05-07T13:43:22;20.10;91.60
48998;DHT22;34807;51.456;7.244;2023-05-07T13:45:47;20.00;91.70
48998;DHT22;34807;51.456;7.244;2023-05-07T13:48:13;20.00;91.70
48998;DHT22;34807;51.456;7.244;2023-05-07T13:50:38;19.90;91.80
48998;DHT22;34807;51.456;7.244;2023-05-07T13:53:04;19.90;91.80
48998;DHT22;34807;51.456;7.244;2023-05-07T13:55:30;19.90;91.90
48998;DHT22;34807;51.456;7.244;2023-05-07T13:57:56;19.90;91.90
48998;DHT22;34807;51.456;7.244;2023-05-07T14:00:22;19.80;91.90
48998;DHT22;34807;51.456;7.244;2023-05-07T14:02:48;19.80;91.90
48998;DHT22;34807;51.456;7.244;2023-05-07T14:05:13;19.80;92.00
48998;DHT22;34807;51.456;7.244;2023-05-07T14:07:39;19.80;92.00
48998;DHT22;34807;51.456;7.244;2023-05-07T14:10:04;19.70;92.00
48998;DHT22;34807;51.456;7.244;2023-05-07T14:12:31;19.80;92.00
48998;DHT22;34807;51.456;7.244;2023-05-07T14:14:57;19.70;92.00
48998;DHT22;34807;51.456;7.244;2023-05-07T14:17:22;19.70;91.90
48998;DHT22;34807;51.456;7.244;2023-05-07T14:19:50;19.70;91.90
48998;DHT22;34807;51.456;7.244;2023-05-07T14:22:15;19.70;91.90
48998;DHT22;34807;51.456;7.244;2023-05-07T14:24:41;19.70;91.90
48998;DHT22;34807;51.456;7.244;2023-05-07T14:27:06;19.70;91.90
48998;DHT22;34807;51.456;7.244;2023-05-07T14:29:32;19.70;91.90
48998;DHT22;34807;51.456;7.244;2023-05-07T14:31:58;19.70;91.90
48998;DHT22;34807;51.456;7.244;2023-05-07T14:34:23;19.70;92.00
48998;DHT22;34807;51.456;7.244;2023-05-07T14:36:49;19.70;92.00
48998;DHT22;34807;51.456;7.244;2023-05-07T14:39:14;19.70;92.00
48998;DHT22;34807;51.456;7.244;2023-05-07T14:41:40;19.70;92.00
48998;DHT22;34807;51.456;7.244;2023-05-07T14:44:05;19.60;92.00
48998;DHT22;34807;51.456;7.244;2023-05-07T14:46:31;19.60;92.00
48998;DHT22;34807;51.456;7.244;2023-05-07T14:48:56;19.60;92.00
48998;DHT22;34807;51.456;7.244;2023-05-07T14:51:22;19.60;92.10
48998;DHT22;34807;51.456;7.244;2023-05-07T14:53:49;19.60;92.30
48998;DHT22;34807;51.456;7.244;2023-05-07T14:56:15;19.50;92.00
48998;DHT22;34807;51.456;7.244;2023-05-07T14:58:40;19.50;92.00
48998;DHT22;34807;51.456;7.244;2023-05-07T15:01:06;19.50;92.00
48998;DHT22;34807;51.456;7.244;2023-05-07T15:03:31;19.60;92.10
48998;DHT22;34807;51.456;7.244;2023-05-07T15:05:57;19.60;92.10
48998;DHT22;34807;51.456;7.244;2023-05-07T15:08:22;19.50;92.10
48998;DHT22;34807;51.456;7.244;2023-05-07T15:10:48;19.50;92.20
48998;DHT22;34807;51.456;7.244;2023-05-07T15:13:13;19.50;92.20
48998;DHT22;34807;51.456;7.244;2023-05-07T15:15:39;19.40;92.20
48998;DHT22;34807;51.456;7.244;2023-05-07T15:18:05;19.40;92.20
48998;DHT22;34807;51.456;7.244;2023-05-07T15:20:30;19.40;92.20
48998;DHT22;34807;51.456;7.244;2023-05-07T15:22:56;19.40;92.20
48998;DHT22;34807;51.456;7.244;2023-05-07T15:25:22;19.40;92.20
48998;DHT22;34807;51.456;7.244;2023-05-07T15:27:48;19.40;92.20
48998;DHT22;34807;51.456;7.244;2023-05-07T15:30:13;19.40;92.30
48998;DHT22;34807;51.456;7.244;2023-05-07T15:32:39;19.40;92.30
48998;DHT22;34807;51.456;7.244;2023-05-07T15:35:05;19.30;92.30
48998;DHT22;34807;51.456;7.244;2023-05-07T15:37:31;19.30;92.30
48998;DHT22;34807;51.456;7.244;2023-05-07T15:39:57;19.30;92.30
48998;DHT22;34807;51.456;7.244;2023-05-07T15:42:22;19.30;92.30
48998;DHT22;34807;51.456;7.244;2023-05-07T15:44:48;19.40;92.30
48998;DHT22;34807;51.456;7.244;2023-05-07T15:47:14;19.30;92.30